Tomiei Maru — JD3429 — position and weather

sailwx.info

Track history (hours):
 
Tides and Currents Weather Stations Pressure Air Temp Water Temp Dewpoint Dewpoint Depression Visibility Wind Speed Wind Dir Waves Ship Positions

Tomiei Maru

Last reported at 2017-Sep-06 09:10 UTC. Time now 2017-Sep-20 18:09 UTC.
Position N 34°51' E 139°38'.
Warning: this ship's position is 14 days out of date.

Length 75 m; draft 4.3 m.

Type: Cargo ship. MMSI: 431004012.

Date/timePositionNaut miles runAvg speedWind from/ knotsBaromVisibWave heightAir tempDewpointWater temp
2017-Sep-06 09:10N 34°51' E 139°38'513.1
2017-Sep-06 08:48N 34°51' E 139°32'22610.6
2017-Sep-05 11:28N 34°06' E 135°03'512.0
2017-Sep-05 11:00N 34°11' E 135°03'811.4
2017-Sep-05 10:21N 34°19' E 135°04'812.1
2017-Sep-05 09:41N 34°25' E 135°10'412.5
2017-Sep-05 09:24N 34°28' E 135°12'512.5
2017-Sep-05 09:00N 34°32' E 135°16'612.5
2017-Sep-05 08:30N 34°37' E 135°21'5 9.4
2017-Sep-05 08:00N 34°38' E 135°27'1 0.0
2017-Sep-03 15:54N 34°38' E 135°28'0 1.3
2017-Sep-03 15:31N 34°38' E 135°27'5 9.2
2017-Sep-03 15:01N 34°37' E 135°21'1212.4
2017-Sep-03 14:01N 34°28' E 135°12'1411.6
2017-Sep-03 12:50N 34°16' E 135°03'412.8
2017-Sep-03 12:30N 34°12' E 135°03'  
2017-Aug-30 14:01N 34°06' E 135°02'213.5
2017-Aug-30 13:54N 34°08' E 135°02'513.3
2017-Aug-30 13:31N 34°13' E 135°02'813.7
2017-Aug-30 12:56N 34°21' E 135°05'713.8
2017-Aug-30 12:26N 34°26' E 135°11'713.8
2017-Aug-30 11:57N 34°31' E 135°16'613.6
2017-Aug-30 11:30N 34°36' E 135°20'611.4
2017-Aug-30 11:00N 34°38' E 135°27'1 2.0
2017-Aug-30 10:28N 34°38' E 135°28'0 0.0
2017-Aug-30 10:00N 34°38' E 135°28'0 0.0
2017-Aug-29 01:46N 34°38' E 135°28'0 0.2
2017-Aug-29 01:27N 34°38' E 135°28'3 7.5
2017-Aug-29 01:00N 34°38' E 135°24'611.6
2017-Aug-29 00:30N 34°36' E 135°17'612.5
2017-Aug-29 00:00N 34°35' E 135°10'713.2
2017-Aug-28 23:30N 34°36' E 135°02'  
Track history (hours):
 
Tides and Currents Weather Stations Pressure Air Temp Water Temp Dewpoint Dewpoint Depression Visibility Wind Speed Wind Dir Waves Ship Positions

Tomiei Maru

Last reported at 2017-Sep-06 09:10 UTC. Time now 2017-Sep-20 18:09 UTC.
Position N 34°51' E 139°38'.
Warning: this ship's position is 14 days out of date.

Length 75 m; draft 4.3 m.

Type: Cargo ship. MMSI: 431004012.

Date/timePositionNaut miles runAvg speedWind from/ knotsBaromVisibWave heightAir tempDewpointWater temp
2017-Sep-06 09:10N 34°51' E 139°38'513.1
2017-Sep-06 08:48N 34°51' E 139°32'22610.6
2017-Sep-05 11:28N 34°06' E 135°03'512.0
2017-Sep-05 11:00N 34°11' E 135°03'811.4
2017-Sep-05 10:21N 34°19' E 135°04'812.1
2017-Sep-05 09:41N 34°25' E 135°10'412.5
2017-Sep-05 09:24N 34°28' E 135°12'512.5
2017-Sep-05 09:00N 34°32' E 135°16'612.5
2017-Sep-05 08:30N 34°37' E 135°21'5 9.4
2017-Sep-05 08:00N 34°38' E 135°27'1 0.0
2017-Sep-03 15:54N 34°38' E 135°28'0 1.3
2017-Sep-03 15:31N 34°38' E 135°27'5 9.2
2017-Sep-03 15:01N 34°37' E 135°21'1212.4
2017-Sep-03 14:01N 34°28' E 135°12'1411.6
2017-Sep-03 12:50N 34°16' E 135°03'412.8
2017-Sep-03 12:30N 34°12' E 135°03'  
2017-Aug-30 14:01N 34°06' E 135°02'213.5
2017-Aug-30 13:54N 34°08' E 135°02'513.3
2017-Aug-30 13:31N 34°13' E 135°02'813.7
2017-Aug-30 12:56N 34°21' E 135°05'713.8
2017-Aug-30 12:26N 34°26' E 135°11'713.8
2017-Aug-30 11:57N 34°31' E 135°16'613.6
2017-Aug-30 11:30N 34°36' E 135°20'611.4
2017-Aug-30 11:00N 34°38' E 135°27'1 2.0
2017-Aug-30 10:28N 34°38' E 135°28'0 0.0
2017-Aug-30 10:00N 34°38' E 135°28'0 0.0
2017-Aug-29 01:46N 34°38' E 135°28'0 0.2
2017-Aug-29 01:27N 34°38' E 135°28'3 7.5
2017-Aug-29 01:00N 34°38' E 135°24'611.6
2017-Aug-29 00:30N 34°36' E 135°17'612.5
2017-Aug-29 00:00N 34°35' E 135°10'713.2
2017-Aug-28 23:30N 34°36' E 135°02'  

Dump ship's entire track history